Terminal Aerodrome Forecast
Issued by NWS Wakefield, VA

Home | Current Version | Previous Version | Text Only | Print | Product List | Glossary On
Versions: 1 2 3 4 5 6 7 8 9 10 11 12 13 14 15 16 17 18 19
656
FTUS41 KAKQ 291740
TAFORF
TAF
KORF 291740Z 2918/3018 02011KT P6SM BKN035
     FM292000 03010KT P6SM SCT035
     FM292300 07006KT P6SM SKC
     FM300300 07004KT P6SM SKC
     FM301200 04008KT P6SM BKN120=

USA.gov is the U.S. government's official web portal to all federal, state and local government web resources and services.